Time;durP1;ratioP1;P1;durP2;ratioP2;P2;SDS_P1;SDS_P2;PMS_P1;PMS_P2;Temp;Humidity;BMP_temperature;BMP_pressure;BME280_temperature;BME280_humidity;BME280_pressure;Samples;Min_cycle;Max_cycle;Signal;HPM_P1;HPM_P2
2022/05/08 00:02:12;;;;;;;13.43;9.77;;;12.20;77.80;;;;;;4962573;28;46379;-64
2022/05/08 00:04:38;;;;;;;10.80;8.70;;;12.20;77.90;;;;;;4962826;28;46584;-63
2022/05/08 00:07:04;;;;;;;18.53;12.40;;;12.20;77.80;;;;;;4961990;28;47239;-64
2022/05/08 00:09:30;;;;;;;17.63;12.90;;;12.20;77.90;;;;;;4961259;28;46427;-64
2022/05/08 00:11:55;;;;;;;29.50;12.87;;;12.10;78.60;;;;;;4962327;28;46423;-64
2022/05/08 00:14:21;;;;;;;15.90;11.93;;;12.10;78.50;;;;;;4962642;28;46313;-63
2022/05/08 00:16:47;;;;;;;14.37;11.27;;;12.20;78.20;;;;;;4962184;28;46423;-64
2022/05/08 00:19:12;;;;;;;16.93;11.60;;;12.20;78.00;;;;;;4962282;28;46453;-63
2022/05/08 00:21:39;;;;;;;15.97;10.73;;;12.20;77.80;;;;;;4960688;28;46429;-63
2022/05/08 00:24:05;;;;;;;14.73;10.70;;;12.20;77.80;;;;;;4961987;28;46517;-63
2022/05/08 00:26:31;;;;;;;15.10;11.20;;;12.20;77.70;;;;;;4961999;28;46304;-61
2022/05/08 00:28:56;;;;;;;12.60;10.03;;;12.20;77.70;;;;;;4961303;28;46216;-63
2022/05/08 00:31:23;;;;;;;12.77;9.80;;;12.20;77.90;;;;;;4962093;28;46424;-63
2022/05/08 00:33:49;;;;;;;13.00;10.10;;;12.20;77.90;;;;;;4961338;28;46513;-63
2022/05/08 00:36:14;;;;;;;12.53;10.13;;;12.20;77.90;;;;;;4961834;28;46379;-62
2022/05/08 00:38:40;;;;;;;12.77;9.90;;;12.20;77.90;;;;;;4961173;28;46495;-63
2022/05/08 00:41:07;;;;;;;13.37;9.63;;;12.20;78.10;;;;;;4954247;28;47478;-63
2022/05/08 00:43:35;;;;;;;14.83;10.00;;;12.20;78.00;;;;;;4957235;28;46602;-62
2022/05/08 00:46:05;;;;;;;13.10;9.70;;;12.20;78.10;;;;;;4955396;28;47080;-63
2022/05/08 00:48:32;;;;;;;16.73;11.00;;;12.20;78.10;;;;;;4958519;28;46467;-63
2022/05/08 00:50:59;;;;;;;15.30;11.27;;;12.20;78.10;;;;;;4962125;28;46483;-63
2022/05/08 00:53:27;;;;;;;15.00;11.80;;;12.20;78.10;;;;;;4959244;28;47123;-63
2022/05/08 00:55:54;;;;;;;17.23;12.93;;;12.20;78.10;;;;;;4960371;28;46434;-63
2022/05/08 00:58:20;;;;;;;19.90;13.83;;;12.20;78.10;;;;;;4959338;28;46441;-62
2022/05/08 01:00:46;;;;;;;22.60;15.37;;;12.20;78.80;;;;;;4960573;28;46534;-63
2022/05/08 01:03:12;;;;;;;20.80;14.20;;;12.10;78.90;;;;;;4961088;28;46440;-63
2022/05/08 01:05:43;;;;;;;20.67;15.10;;;12.10;78.90;;;;;;4960864;28;47868;-63
2022/05/08 01:08:10;;;;;;;21.60;15.23;;;12.20;79.00;;;;;;4960435;28;46130;-62
2022/05/08 01:10:37;;;;;;;25.40;17.30;;;12.30;79.50;;;;;;4955916;28;46430;-63
2022/05/08 01:13:07;;;;;;;22.67;15.30;;;12.30;78.20;;;;;;4959924;28;46478;-63
2022/05/08 01:15:43;;;;;;;24.43;16.70;;;12.30;78.90;;;;;;4959577;28;46344;-64
2022/05/08 01:18:12;;;;;;;29.90;16.60;;;12.30;78.30;;;;;;4959209;28;46698;-63
2022/05/08 01:20:38;;;;;;;29.60;18.20;;;12.30;78.60;;;;;;4959824;28;46576;-63
2022/05/08 01:23:05;;;;;;;25.17;17.47;;;12.30;78.60;;;;;;4954803;28;46345;-60
2022/05/08 01:25:33;;;;;;;30.10;19.03;;;12.40;78.30;;;;;;4958567;28;46343;-63
2022/05/08 01:27:59;;;;;;;23.83;16.33;;;12.40;79.60;;;;;;4958682;28;46700;-63
2022/05/08 01:30:25;;;;;;;26.33;17.33;;;12.50;78.20;;;;;;4960731;28;46663;-62
2022/05/08 01:32:50;;;;;;;30.20;19.33;;;12.50;77.90;;;;;;4960883;28;46451;-62
2022/05/08 01:35:16;;;;;;;25.47;16.53;;;12.60;77.70;;;;;;4960737;28;46405;-63
2022/05/08 01:37:42;;;;;;;23.60;16.10;;;12.60;78.70;;;;;;4960672;28;46502;-63
2022/05/08 01:40:08;;;;;;;25.43;17.60;;;12.60;77.50;;;;;;4961715;28;46424;-63
2022/05/08 01:42:33;;;;;;;24.50;17.40;;;12.70;77.70;;;;;;4964101;28;46367;-63
2022/05/08 01:44:59;;;;;;;20.13;15.63;;;12.70;77.90;;;;;;4963439;28;47059;-63
2022/05/08 01:50:09;;;;;;;20.30;14.50;;;12.70;77.80;;;;;;4962873;28;46506;-63
2022/05/08 01:52:34;;;;;;;18.70;13.90;;;12.70;77.80;;;;;;4962996;28;46719;-63
2022/05/08 01:55:01;;;;;;;20.40;14.70;;;12.70;77.70;;;;;;4963505;28;47267;-63
2022/05/08 01:57:28;;;;;;;23.90;17.30;;;12.70;77.70;;;;;;4962058;28;46335;-64
2022/05/08 01:59:53;;;;;;;22.67;16.07;;;12.80;77.60;;;;;;4963253;28;46384;-64
2022/05/08 02:02:19;;;;;;;22.23;16.40;;;12.70;77.70;;;;;;4962141;28;46407;-62
2022/05/08 02:04:46;;;;;;;24.00;16.97;;;12.70;77.70;;;;;;4963417;28;46493;-63
2022/05/08 02:07:11;;;;;;;21.40;15.57;;;12.80;77.80;;;;;;4966653;28;46486;-61
2022/05/08 02:09:37;;;;;;;21.07;14.60;;;12.80;77.70;;;;;;4968072;28;46492;-62
2022/05/08 02:12:04;;;;;;;19.97;14.57;;;12.80;77.80;;;;;;4963460;28;46611;-63
2022/05/08 02:14:29;;;;;;;21.47;15.60;;;12.80;78.00;;;;;;4962999;28;46367;-63
2022/05/08 02:16:55;;;;;;;21.50;16.03;;;12.70;78.20;;;;;;4963462;28;46447;-63
2022/05/08 02:19:21;;;;;;;20.80;15.60;;;12.70;78.70;;;;;;4962419;28;46485;-63
2022/05/08 02:21:47;;;;;;;22.43;15.60;;;12.70;78.40;;;;;;4963606;28;46330;-64
2022/05/08 02:24:13;;;;;;;19.77;15.30;;;12.70;78.30;;;;;;4962502;28;47258;-63
2022/05/08 02:26:38;;;;;;;21.83;16.10;;;12.70;78.60;;;;;;4963686;28;46406;-62
2022/05/08 02:29:04;;;;;;;24.70;17.03;;;12.60;79.30;;;;;;4959960;28;46350;-61
2022/05/08 02:31:29;;;;;;;22.83;16.87;;;12.70;79.40;;;;;;4959788;28;46704;-62
2022/05/08 02:33:57;;;;;;;23.80;17.13;;;12.70;78.90;;;;;;4961530;28;47054;-62
2022/05/08 02:36:22;;;;;;;24.77;16.90;;;12.70;79.00;;;;;;4960588;28;46421;-62
2022/05/08 02:38:48;;;;;;;26.07;18.13;;;12.70;78.90;;;;;;4962466;28;46437;-62
2022/05/08 02:41:14;;;;;;;31.73;19.80;;;12.60;79.40;;;;;;4963419;28;46356;-63
2022/05/08 02:43:39;;;;;;;27.23;18.40;;;12.50;79.30;;;;;;4961786;28;46376;-62
2022/05/08 02:46:05;;;;;;;31.30;20.20;;;12.60;79.40;;;;;;4963189;28;46327;-62
2022/05/08 02:48:30;;;;;;;31.93;19.80;;;12.60;79.40;;;;;;4962796;28;46552;-63
2022/05/08 02:50:56;;;;;;;35.07;22.63;;;12.60;79.40;;;;;;4962261;28;46357;-62
2022/05/08 02:53:22;;;;;;;36.77;21.33;;;12.50;79.30;;;;;;4962162;28;47150;-63
2022/05/08 02:58:34;;;;;;;38.80;23.00;;;12.50;79.30;;;;;;4960147;28;46443;-62
2022/05/08 03:01:01;;;;;;;34.00;21.63;;;12.60;79.40;;;;;;4956936;28;46376;-62
2022/05/08 03:03:27;;;;;;;39.07;23.60;;;12.60;79.40;;;;;;4960702;28;46870;-63
2022/05/08 03:05:53;;;;;;;37.00;23.43;;;12.70;79.50;;;;;;4961739;28;46398;-63
2022/05/08 03:08:19;;;;;;;37.30;23.90;;;12.80;79.60;;;;;;4959950;28;46451;-63
2022/05/08 03:13:39;;;;;;;40.70;25.30;;;12.80;79.60;;;;;;4961942;28;46395;-63
2022/05/08 03:16:07;;;;;;;40.23;25.23;;;12.70;79.50;;;;;;4962245;28;46355;-61
2022/05/08 03:18:34;;;;;;;41.00;25.40;;;12.60;79.40;;;;;;4961975;28;46352;-62
2022/05/08 03:21:00;;;;;;;44.90;25.43;;;12.60;79.90;;;;;;4960539;28;46563;-63
2022/05/08 03:23:27;;;;;;;42.83;26.50;;;12.60;80.20;;;;;;4962019;28;46357;-63
2022/05/08 03:25:52;;;;;;;42.57;25.07;;;12.50;80.70;;;;;;4962312;28;46523;-62
2022/05/08 03:28:18;;;;;;;44.60;26.63;;;12.50;81.00;;;;;;4962191;28;46809;-62
2022/05/08 03:30:44;;;;;;;39.10;25.37;;;12.50;81.00;;;;;;4956539;28;46513;-63
2022/05/08 03:33:10;;;;;;;41.73;25.13;;;12.60;80.80;;;;;;4958477;28;46454;-62
2022/05/08 03:35:37;;;;;;;41.63;27.03;;;12.70;80.50;;;;;;4960645;28;46405;-63
2022/05/08 03:38:03;;;;;;;40.77;25.00;;;12.80;79.60;;;;;;4961559;28;46379;-62
2022/05/08 03:40:29;;;;;;;44.40;26.37;;;12.80;79.50;;;;;;4961461;28;46459;-63
2022/05/08 03:42:55;;;;;;;41.20;26.20;;;12.80;79.50;;;;;;4962111;28;47250;-62
2022/05/08 03:45:20;;;;;;;43.50;24.30;;;12.70;79.50;;;;;;4963718;28;46339;-63
2022/05/08 03:47:50;;;;;;;43.30;25.37;;;12.70;79.90;;;;;;4963188;28;46427;-62
2022/05/08 03:50:15;;;;;;;43.97;27.13;;;12.70;80.60;;;;;;4962602;28;46494;-63
2022/05/08 03:52:41;;;;;;;41.37;26.50;;;12.60;80.90;;;;;;4962474;28;47465;-63
2022/05/08 03:55:07;;;;;;;47.17;26.30;;;12.60;81.00;;;;;;4959738;28;46428;-63
2022/05/08 03:57:33;;;;;;;41.47;26.13;;;12.70;80.90;;;;;;4963226;28;46353;-63
2022/05/08 03:59:58;;;;;;;41.33;27.30;;;12.60;80.90;;;;;;4961960;28;46447;-63
2022/05/08 04:02:24;;;;;;;47.77;28.33;;;12.60;81.10;;;;;;4949753;28;47870;-63
2022/05/08 04:04:49;;;;;;;39.37;24.47;;;12.60;81.30;;;;;;4954759;28;46459;-63
2022/05/08 04:07:15;;;;;;;40.70;25.00;;;12.60;81.40;;;;;;4960152;28;46410;-62
2022/05/08 04:09:40;;;;;;;39.70;25.60;;;12.60;81.30;;;;;;4961198;28;46695;-62
2022/05/08 04:12:06;;;;;;;45.20;27.77;;;12.70;81.30;;;;;;4961294;28;46422;-63
2022/05/08 04:14:32;;;;;;;39.67;24.90;;;12.70;81.10;;;;;;4962933;28;46480;-62
2022/05/08 04:16:57;;;;;;;40.47;24.37;;;12.70;81.10;;;;;;4961005;28;46383;-63
2022/05/08 04:19:23;;;;;;;39.70;25.67;;;12.70;81.10;;;;;;4962025;28;46818;-62
2022/05/08 04:21:49;;;;;;;42.80;25.00;;;12.70;81.00;;;;;;4962123;28;47140;-62
2022/05/08 04:24:17;;;;;;;47.43;28.60;;;12.70;80.90;;;;;;4962349;28;46349;-63
2022/05/08 04:26:42;;;;;;;43.47;27.97;;;12.80;80.80;;;;;;4962257;28;46407;-63
2022/05/08 04:29:08;;;;;;;57.53;35.13;;;12.80;80.60;;;;;;4962048;28;46367;-63
2022/05/08 04:31:34;;;;;;;51.40;31.07;;;12.80;80.50;;;;;;4961093;28;46959;-64
2022/05/08 04:34:00;;;;;;;48.07;28.37;;;12.80;80.50;;;;;;4961230;28;46454;-63
2022/05/08 04:36:26;;;;;;;42.10;25.20;;;12.80;80.70;;;;;;4955866;28;46538;-62
2022/05/08 04:38:52;;;;;;;40.80;24.63;;;12.80;80.80;;;;;;4961432;28;46457;-63
2022/05/08 04:41:18;;;;;;;43.10;25.70;;;12.80;81.10;;;;;;4961816;28;48219;-63
2022/05/08 04:43:44;;;;;;;40.80;24.80;;;12.80;82.30;;;;;;4961938;28;46802;-60
2022/05/08 04:46:10;;;;;;;36.10;23.30;;;12.80;81.00;;;;;;4961924;28;46403;-64
2022/05/08 04:48:37;;;;;;;35.47;23.90;;;12.90;80.60;;;;;;4961864;28;46218;-63
2022/05/08 04:51:03;;;;;;;38.13;24.60;;;12.90;80.80;;;;;;4964431;28;48170;-62
2022/05/08 04:53:30;;;;;;;36.80;23.63;;;12.90;80.90;;;;;;4966806;28;46396;-62
2022/05/08 04:55:56;;;;;;;40.70;24.53;;;12.90;81.00;;;;;;4960871;28;46356;-62
2022/05/08 04:58:22;;;;;;;39.17;24.83;;;12.80;81.10;;;;;;4960954;28;46495;-62
2022/05/08 05:00:48;;;;;;;40.97;25.67;;;12.80;82.50;;;;;;4961756;28;46442;-62
2022/05/08 05:03:13;;;;;;;37.47;24.70;;;12.90;81.40;;;;;;4961173;28;46797;-62
2022/05/08 05:05:39;;;;;;;37.70;22.87;;;12.90;81.40;;;;;;4962149;28;46428;-62
2022/05/08 05:08:06;;;;;;;37.97;24.63;;;12.90;81.60;;;;;;4961876;28;46630;-62
2022/05/08 05:10:32;;;;;;;36.43;23.83;;;13.00;81.40;;;;;;4960748;28;47046;-62
2022/05/08 05:12:58;;;;;;;39.20;25.30;;;13.10;82.30;;;;;;4961513;28;46042;-62
2022/05/08 05:15:24;;;;;;;36.40;24.57;;;13.10;81.10;;;;;;4961622;28;46401;-63
2022/05/08 05:17:54;;;;;;;36.30;25.10;;;13.20;80.50;;;;;;4961541;28;45896;-63
2022/05/08 05:20:19;;;;;;;38.00;24.73;;;13.20;80.80;;;;;;4960828;28;46455;-62
2022/05/08 05:22:45;;;;;;;33.83;23.60;;;13.20;80.70;;;;;;4957577;28;46567;-62
2022/05/08 05:25:11;;;;;;;35.47;24.30;;;13.30;80.70;;;;;;4959362;28;46367;-62
2022/05/08 05:27:36;;;;;;;35.70;24.30;;;13.30;80.50;;;;;;4960407;28;46606;-63
2022/05/08 05:30:03;;;;;;;33.77;23.53;;;13.40;80.30;;;;;;4960504;28;46862;-62
2022/05/08 05:32:29;;;;;;;32.37;22.70;;;13.40;80.10;;;;;;4959326;28;45760;-63
2022/05/08 05:34:54;;;;;;;36.40;24.80;;;13.40;80.10;;;;;;4958947;28;46499;-63
2022/05/08 05:37:20;;;;;;;44.30;28.00;;;13.50;80.20;;;;;;4958880;28;46434;-62
2022/05/08 05:39:46;;;;;;;46.73;27.30;;;13.60;80.30;;;;;;4956163;28;46446;-62
2022/05/08 05:42:11;;;;;;;48.13;27.73;;;13.50;80.20;;;;;;4956004;28;46615;-62
2022/05/08 05:44:38;;;;;;;54.10;27.93;;;13.60;80.30;;;;;;4957839;28;46513;-62
2022/05/08 05:49:49;;;;;;;36.03;23.70;;;13.70;80.40;;;;;;4951160;28;46728;-63
2022/05/08 05:52:14;;;;;;;27.97;21.83;;;13.90;80.30;;;;;;4954952;28;46484;-63
2022/05/08 05:54:40;;;;;;;30.10;21.30;;;13.90;80.00;;;;;;4955561;28;46583;-63
2022/05/08 05:57:06;;;;;;;29.70;22.17;;;13.90;80.10;;;;;;4958284;28;45984;-62
2022/05/08 05:59:31;;;;;;;28.67;21.23;;;14.10;80.00;;;;;;4954850;28;46431;-62
2022/05/08 06:01:57;;;;;;;29.30;22.17;;;14.10;79.90;;;;;;4957001;28;46527;-62
2022/05/08 06:04:23;;;;;;;32.77;22.27;;;14.10;79.90;;;;;;4955240;28;46449;-63
2022/05/08 06:06:48;;;;;;;34.07;23.43;;;14.10;80.00;;;;;;4955770;28;46495;-62
2022/05/08 06:09:14;;;;;;;33.50;22.70;;;14.20;81.10;;;;;;4953033;28;47421;-63
2022/05/08 06:11:39;;;;;;;30.07;21.33;;;14.20;79.90;;;;;;4954285;28;46445;-63
2022/05/08 06:14:05;;;;;;;42.90;23.70;;;14.40;79.90;;;;;;4951013;28;46438;-62
2022/05/08 06:16:31;;;;;;;29.57;21.13;;;14.40;79.60;;;;;;4956168;28;46364;-62
2022/05/08 06:18:58;;;;;;;26.90;19.97;;;14.50;79.40;;;;;;4958674;28;46398;-63
2022/05/08 06:21:24;;;;;;;27.90;21.20;;;14.60;79.50;;;;;;4956803;28;46767;-62
2022/05/08 06:23:49;;;;;;;32.47;21.17;;;14.60;79.50;;;;;;4951623;28;46439;-63
2022/05/08 06:26:15;;;;;;;26.57;20.13;;;14.70;79.20;;;;;;4957481;28;46456;-63
2022/05/08 06:28:42;;;;;;;29.60;21.30;;;14.60;79.40;;;;;;4959982;28;46511;-62
2022/05/08 06:31:07;;;;;;;30.17;21.73;;;14.60;79.60;;;;;;4963880;28;46280;-62
2022/05/08 06:33:33;;;;;;;26.70;19.77;;;14.70;79.30;;;;;;4964655;28;46366;-63
2022/05/08 06:35:58;;;;;;;27.30;21.10;;;14.90;78.80;;;;;;4964532;28;45912;-63
2022/05/08 06:38:24;;;;;;;30.87;20.93;;;15.00;78.20;;;;;;4958197;28;46355;-62
2022/05/08 06:40:50;;;;;;;26.03;21.00;;;15.20;78.00;;;;;;4961422;28;46498;-63
2022/05/08 06:43:16;;;;;;;24.93;20.10;;;15.20;77.60;;;;;;4963839;28;45816;-62
2022/05/08 06:45:43;;;;;;;27.53;21.20;;;15.30;77.50;;;;;;4959923;28;46486;-62
2022/05/08 06:48:08;;;;;;;28.53;20.87;;;15.40;77.00;;;;;;4958031;28;47110;-63
2022/05/08 06:50:35;;;;;;;26.00;20.33;;;15.60;76.60;;;;;;4959336;28;46440;-63
2022/05/08 06:53:03;;;;;;;27.07;21.07;;;15.70;76.00;;;;;;4962158;28;46365;-62
2022/05/08 06:55:28;;;;;;;26.53;20.10;;;15.60;76.00;;;;;;4963485;28;46569;-63
2022/05/08 06:57:54;;;;;;;33.33;20.27;;;15.60;76.30;;;;;;4963502;28;46356;-63
2022/05/08 07:03:07;;;;;;;32.10;21.43;;;15.70;76.40;;;;;;4963539;28;46456;-63
2022/05/08 07:05:38;;;;;;;28.47;21.80;;;15.90;75.70;;;;;;4961427;28;46441;-63
2022/05/08 07:08:04;;;;;;;29.33;21.93;;;15.90;75.00;;;;;;4961919;28;46554;-63
2022/05/08 07:10:29;;;;;;;25.87;20.70;;;16.10;74.90;;;;;;4962459;28;46347;-63
2022/05/08 07:12:56;;;;;;;25.87;21.30;;;16.30;74.50;;;;;;4962027;28;46645;-63
2022/05/08 07:15:22;;;;;;;26.20;20.43;;;16.50;74.00;;;;;;4958055;28;46438;-63
2022/05/08 07:17:47;;;;;;;28.77;20.47;;;16.60;73.30;;;;;;4960983;28;46695;-63
2022/05/08 07:20:13;;;;;;;24.40;18.80;;;16.60;73.50;;;;;;4956600;28;45861;-62
2022/05/08 07:22:39;;;;;;;24.57;20.10;;;16.70;73.10;;;;;;4958691;28;46421;-64
2022/05/08 07:25:06;;;;;;;26.07;19.13;;;16.60;73.10;;;;;;4962502;28;46675;-63
2022/05/08 07:27:36;;;;;;;25.63;20.40;;;16.50;72.90;;;;;;4962726;28;46336;-62
2022/05/08 07:30:05;;;;;;;28.57;21.83;;;16.20;73.30;;;;;;4962212;28;46487;-62
2022/05/08 07:32:33;;;;;;;29.27;22.97;;;16.00;73.90;;;;;;4962705;28;45882;-62
2022/05/08 07:37:46;;;;;;;25.43;19.73;;;16.40;72.70;;;;;;4966115;28;46371;-63
2022/05/08 07:40:12;;;;;;;24.20;18.73;;;16.60;71.90;;;;;;4962433;28;46591;-63
2022/05/08 07:42:38;;;;;;;23.70;19.23;;;16.60;71.70;;;;;;4962663;28;46375;-63
2022/05/08 07:45:07;;;;;;;23.47;18.27;;;16.70;71.30;;;;;;4961152;28;46025;-63
2022/05/08 07:47:32;;;;;;;25.30;19.20;;;17.00;70.90;;;;;;4961564;28;46629;-63
2022/05/08 07:49:58;;;;;;;24.03;19.70;;;17.20;70.30;;;;;;4962650;28;46442;-66
2022/05/08 07:52:24;;;;;;;25.90;18.57;;;17.40;69.40;;;;;;4953696;28;46419;-65
2022/05/08 07:54:50;;;;;;;26.57;19.03;;;17.50;69.20;;;;;;4953375;28;46848;-65
2022/05/08 07:57:15;;;;;;;26.13;19.13;;;17.50;68.30;;;;;;4960452;28;46429;-64
2022/05/08 07:59:41;;;;;;;25.00;19.80;;;17.50;68.60;;;;;;4960020;28;46667;-65
2022/05/08 08:02:07;;;;;;;25.67;18.93;;;17.30;68.70;;;;;;4960540;28;46502;-65
2022/05/08 08:04:34;;;;;;;24.83;19.57;;;17.10;69.20;;;;;;4958379;28;46408;-65
2022/05/08 08:07:01;;;;;;;22.77;16.83;;;17.00;69.10;;;;;;4960363;28;47161;-64
2022/05/08 08:09:26;;;;;;;21.07;17.53;;;17.00;68.80;;;;;;4960586;28;46320;-64
2022/05/08 08:11:53;;;;;;;22.40;16.73;;;17.00;68.10;;;;;;4961145;28;46261;-65
2022/05/08 08:14:20;;;;;;;17.23;14.30;;;17.10;67.20;;;;;;4961095;28;46595;-64
2022/05/08 08:16:46;;;;;;;17.60;14.90;;;17.20;66.60;;;;;;4954826;28;47318;-65
2022/05/08 08:19:12;;;;;;;19.40;15.50;;;17.20;66.70;;;;;;4958796;28;46470;-65
2022/05/08 08:21:37;;;;;;;18.73;14.40;;;17.50;66.20;;;;;;4957967;28;46470;-63
2022/05/08 08:24:03;;;;;;;16.70;13.50;;;17.50;65.20;;;;;;4959813;28;46636;-64
2022/05/08 08:26:29;;;;;;;17.77;15.20;;;17.40;64.90;;;;;;4958877;28;47042;-62
2022/05/08 08:28:55;;;;;;;18.07;14.93;;;17.20;65.30;;;;;;4960546;28;46458;-63
2022/05/08 08:31:21;;;;;;;17.90;13.73;;;17.10;65.60;;;;;;4961180;28;46232;-64
2022/05/08 08:33:48;;;;;;;18.00;12.90;;;17.20;65.80;;;;;;4961111;28;46467;-63
2022/05/08 08:36:14;;;;;;;15.27;11.80;;;16.90;65.50;;;;;;4960796;28;46445;-63
2022/05/08 08:38:40;;;;;;;14.23;9.77;;;16.90;65.70;;;;;;4960397;28;46390;-63
2022/05/08 08:41:07;;;;;;;15.20;10.93;;;17.00;65.80;;;;;;4958353;28;46380;-62
2022/05/08 08:49:22;;;;;;;12.00;8.77;;;17.10;64.50;;;;;;4959702;28;46518;-62
2022/05/08 08:51:50;;;;;;;12.10;8.07;;;17.00;64.00;;;;;;4959247;28;46638;-63
2022/05/08 08:54:18;;;;;;;12.43;8.87;;;16.90;63.90;;;;;;4955944;28;46609;-64
2022/05/08 08:56:44;;;;;;;13.10;8.90;;;16.90;64.30;;;;;;4956348;28;46646;-65
2022/05/08 08:59:10;;;;;;;15.43;8.97;;;17.10;63.40;;;;;;4958812;28;46446;-64
2022/05/08 09:01:43;;;;;;;13.37;10.00;;;17.20;62.60;;;;;;4958199;28;46533;-63
2022/05/08 09:04:10;;;;;;;13.20;9.67;;;17.30;62.30;;;;;;4955174;28;46384;-64
2022/05/08 09:06:40;;;;;;;14.10;9.60;;;17.60;62.30;;;;;;4957253;28;46504;-64
2022/05/08 09:09:26;;;;;;;18.00;11.87;;;17.60;61.30;;;;;;4957908;28;46352;-63
2022/05/08 09:11:56;;;;;;;13.17;10.77;;;17.80;60.90;;;;;;4959227;28;46387;-64
2022/05/08 09:14:32;;;;;;;14.20;10.40;;;17.90;60.20;;;;;;4960767;28;46431;-64
2022/05/08 09:17:00;;;;;;;12.23;9.63;;;18.20;59.80;;;;;;4961116;28;47329;-62
2022/05/08 09:19:32;;;;;;;13.57;10.37;;;18.20;59.50;;;;;;4959523;28;45896;-64
2022/05/08 09:22:00;;;;;;;13.70;10.00;;;18.40;59.40;;;;;;4960816;28;46392;-62
2022/05/08 09:24:26;;;;;;;15.30;10.13;;;18.50;59.50;;;;;;4957335;28;46379;-62
2022/05/08 09:27:09;;;;;;;14.77;10.53;;;18.20;59.20;;;;;;4958673;28;46377;-63
2022/05/08 09:29:34;;;;;;;15.50;11.13;;;18.00;59.10;;;;;;4958292;28;46479;-63
2022/05/08 09:32:00;;;;;;;16.50;12.07;;;17.90;58.90;;;;;;4960052;28;46337;-62
2022/05/08 09:34:26;;;;;;;13.87;11.20;;;17.90;58.90;;;;;;4956962;28;46629;-61
2022/05/08 09:37:08;;;;;;;17.23;12.63;;;17.90;59.00;;;;;;4954974;28;48238;-63
2022/05/08 09:39:34;;;;;;;15.10;11.50;;;17.90;59.00;;;;;;4955040;28;46439;-63
2022/05/08 09:41:59;;;;;;;15.07;10.77;;;17.90;58.90;;;;;;4959454;28;46639;-63
2022/05/08 09:44:25;;;;;;;18.67;10.73;;;18.00;59.10;;;;;;4960204;28;46308;-63
2022/05/08 09:46:51;;;;;;;14.17;11.23;;;18.20;59.20;;;;;;4957887;28;46392;-63
2022/05/08 09:49:20;;;;;;;12.90;10.57;;;18.40;58.70;;;;;;4957727;28;46588;-63
2022/05/08 09:51:47;;;;;;;12.43;10.10;;;18.40;57.50;;;;;;4959415;28;46567;-63
2022/05/08 09:54:14;;;;;;;15.03;10.43;;;18.40;57.90;;;;;;4959561;28;46470;-62
2022/05/08 09:56:40;;;;;;;12.57;9.73;;;18.40;57.70;;;;;;4958583;28;46471;-63
2022/05/08 09:59:07;;;;;;;12.73;10.17;;;18.40;57.30;;;;;;4959793;28;46455;-63
2022/05/08 10:01:34;;;;;;;14.30;9.80;;;18.60;57.20;;;;;;4962213;28;45842;-63
2022/05/08 10:03:59;;;;;;;12.83;9.67;;;18.60;56.90;;;;;;4963651;28;45924;-64
2022/05/08 10:06:28;;;;;;;13.10;9.90;;;18.50;56.60;;;;;;4957886;28;47125;-63
2022/05/08 10:13:53;;;;;;;11.00;9.63;;;18.70;56.80;;;;;;4960098;28;46721;-63
2022/05/08 10:14:30;;;;;;;22.93;9.60;;;18.60;55.90;;;;;;4957737;28;46542;-64
2022/05/08 10:17:03;;;;;;;13.13;10.23;;;18.50;55.90;;;;;;4961905;28;46867;-64
2022/05/08 10:19:32;;;;;;;12.37;9.77;;;18.50;56.00;;;;;;4961832;28;45706;-63
2022/05/08 10:21:59;;;;;;;11.10;8.80;;;18.40;56.00;;;;;;4962286;28;46453;-63
2022/05/08 10:24:35;;;;;;;9.50;7.90;;;18.50;56.20;;;;;;4970484;28;46231;-63
2022/05/08 10:27:11;;;;;;;12.57;7.50;;;18.70;55.70;;;;;;4962493;28;46404;-64
2022/05/08 10:29:38;;;;;;;11.13;8.10;;;18.80;55.50;;;;;;4963071;28;45795;-63
2022/05/08 10:32:06;;;;;;;9.13;8.10;;;18.90;55.10;;;;;;4963362;28;45826;-64
2022/05/08 10:34:37;;;;;;;9.27;7.43;;;18.90;54.80;;;;;;4961774;28;46276;-63
2022/05/08 10:37:12;;;;;;;14.93;7.50;;;18.90;54.40;;;;;;4958788;28;46662;-63
2022/05/08 10:39:38;;;;;;;11.23;7.43;;;19.00;53.70;;;;;;4958185;28;46392;-63
2022/05/08 10:42:04;;;;;;;13.73;7.63;;;19.20;53.60;;;;;;4962302;28;46841;-65
2022/05/08 10:44:35;;;;;;;8.77;7.10;;;19.20;52.90;;;;;;4952911;28;46384;-63
2022/05/08 10:47:36;;;;;;;7.83;7.03;;;19.00;53.40;;;;;;4958447;28;47011;-64
2022/05/08 10:50:15;;;;;;;11.33;8.27;;;18.70;54.00;;;;;;4960683;28;45814;-65
2022/05/08 10:52:41;;;;;;;10.10;7.20;;;18.40;54.80;;;;;;4959789;28;46474;-64
2022/05/08 10:55:12;;;;;;;10.90;7.10;;;18.50;54.80;;;;;;4959286;28;46507;-64
2022/05/08 10:57:39;;;;;;;8.00;6.00;;;18.50;54.80;;;;;;4961325;28;46844;-64
2022/05/08 11:00:06;;;;;;;8.83;6.30;;;18.60;53.60;;;;;;4961424;28;46375;-64
2022/05/08 11:02:41;;;;;;;8.00;6.57;;;18.50;53.50;;;;;;4962288;28;46362;-63
2022/05/08 11:05:09;;;;;;;10.80;6.77;;;18.70;53.80;;;;;;4960532;28;46395;-62
2022/05/08 11:07:36;;;;;;;9.67;6.90;;;18.80;53.70;;;;;;4961595;28;46657;-63
2022/05/08 11:10:02;;;;;;;8.13;6.93;;;18.70;53.50;;;;;;4961173;28;46736;-63
2022/05/08 11:12:28;;;;;;;12.23;6.63;;;18.80;53.60;;;;;;4961587;28;46552;-63
2022/05/08 11:15:07;;;;;;;7.83;6.60;;;18.70;53.60;;;;;;4955803;28;45907;-63
2022/05/08 11:17:32;;;;;;;9.50;6.33;;;18.80;53.30;;;;;;4960643;28;46333;-63
2022/05/08 11:19:58;;;;;;;7.67;6.13;;;19.00;52.60;;;;;;4959152;28;46417;-62
2022/05/08 11:22:24;;;;;;;9.50;7.10;;;19.20;51.60;;;;;;4961810;28;46288;-62
2022/05/08 11:24:49;;;;;;;9.37;7.10;;;19.10;51.60;;;;;;4960597;28;46575;-62
2022/05/08 11:27:15;;;;;;;8.10;6.47;;;19.10;51.60;;;;;;4961600;28;46416;-63
2022/05/08 11:29:50;;;;;;;10.20;6.83;;;19.00;52.00;;;;;;4961461;28;45818;-61
2022/05/08 11:38:05;;;;;;;8.00;6.60;;;19.30;51.40;;;;;;4958655;28;46647;-63
2022/05/08 11:40:31;;;;;;;10.60;6.87;;;19.40;50.80;;;;;;4956135;28;45854;-63
2022/05/08 11:42:57;;;;;;;8.73;6.67;;;19.50;50.50;;;;;;4959807;28;46526;-64
2022/05/08 11:45:22;;;;;;;8.17;6.60;;;19.40;50.30;;;;;;4961581;28;46486;-63
2022/05/08 11:47:53;;;;;;;10.23;7.10;;;19.40;50.50;;;;;;4960729;28;46162;-62
2022/05/08 11:50:20;;;;;;;10.30;7.20;;;19.40;50.30;;;;;;4960064;28;46722;-64
2022/05/08 11:52:45;;;;;;;8.50;6.90;;;19.50;50.10;;;;;;4956699;28;46429;-62
2022/05/08 11:55:11;;;;;;;10.47;6.77;;;19.50;49.40;;;;;;4957389;28;46536;-63
2022/05/08 11:57:44;;;;;;;10.13;7.37;;;19.40;50.00;;;;;;4960680;28;46593;-64
2022/05/08 12:00:14;;;;;;;9.53;7.03;;;19.30;50.40;;;;;;4957491;28;46622;-63
2022/05/08 12:02:48;;;;;;;11.70;7.70;;;19.00;51.10;;;;;;4961011;28;46325;-63
2022/05/08 12:05:18;;;;;;;9.27;7.47;;;18.70;51.50;;;;;;4960651;28;46770;-63
2022/05/08 12:07:47;;;;;;;8.57;7.60;;;18.50;52.20;;;;;;4961166;28;46974;-64
2022/05/08 12:10:13;;;;;;;11.57;7.60;;;18.40;52.90;;;;;;4960228;28;46476;-63
2022/05/08 12:12:40;;;;;;;12.23;8.83;;;18.00;53.60;;;;;;4959064;28;46420;-63
2022/05/08 12:15:09;;;;;;;12.73;8.53;;;17.80;54.50;;;;;;4960920;28;46070;-64
2022/05/08 12:17:40;;;;;;;11.80;8.50;;;17.60;55.30;;;;;;4959941;28;46762;-64
2022/05/08 12:20:10;;;;;;;11.40;8.00;;;17.40;56.00;;;;;;4958557;28;46395;-63
2022/05/08 12:22:36;;;;;;;10.50;8.70;;;17.30;56.80;;;;;;4959192;28;46827;-65
2022/05/08 12:25:02;;;;;;;10.53;8.60;;;17.10;57.20;;;;;;4960269;28;46455;-65
2022/05/08 12:27:28;;;;;;;12.57;9.10;;;16.90;58.00;;;;;;4958420;28;47796;-64
2022/05/08 12:29:54;;;;;;;12.50;9.60;;;16.70;57.90;;;;;;4960104;28;46522;-63
2022/05/08 12:32:20;;;;;;;13.07;9.50;;;16.60;58.50;;;;;;4958878;28;46449;-65
2022/05/08 12:34:47;;;;;;;14.93;11.10;;;16.70;58.80;;;;;;4960473;28;46370;-64
2022/05/08 12:37:15;;;;;;;13.10;10.50;;;16.70;59.00;;;;;;4955897;28;46515;-64
2022/05/08 12:39:42;;;;;;;11.43;9.80;;;16.60;59.70;;;;;;4958532;28;46487;-64
2022/05/08 12:42:09;;;;;;;12.07;8.63;;;16.50;60.20;;;;;;4959177;28;46853;-63
2022/05/08 12:44:36;;;;;;;14.40;9.80;;;16.40;60.70;;;;;;4959090;28;46410;-65
2022/05/08 12:47:04;;;;;;;12.13;9.60;;;16.40;60.50;;;;;;4960504;28;46891;-64
2022/05/08 12:49:29;;;;;;;11.23;8.93;;;16.50;60.30;;;;;;4959166;28;46424;-65
2022/05/08 12:51:55;;;;;;;13.10;10.20;;;16.40;60.60;;;;;;4957949;28;46172;-64
2022/05/08 12:54:21;;;;;;;15.47;11.50;;;16.40;60.90;;;;;;4961041;28;45964;-65
2022/05/08 12:56:46;;;;;;;24.20;10.90;;;16.30;61.70;;;;;;4960410;28;47217;-63
2022/05/08 13:01:56;;;;;;;14.30;10.27;;;16.20;62.00;;;;;;4955172;28;46540;-63
2022/05/08 13:04:23;;;;;;;13.30;10.13;;;16.20;62.10;;;;;;4951313;28;46820;-64